createdAt,value
2023-03-20T00:02:27.979Z,6.30
2023-03-20T00:04:56.932Z,6.03
2023-03-20T00:07:26.223Z,6.25
2023-03-20T00:09:57.824Z,6.47
2023-03-20T00:12:27.244Z,6.78
2023-03-20T00:14:56.476Z,5.82
2023-03-20T00:17:26.692Z,6.03
2023-03-20T00:19:55.438Z,5.80
2023-03-20T00:22:24.186Z,6.30
2023-03-20T00:24:54.391Z,5.72
2023-03-20T00:27:23.188Z,6.25
2023-03-20T00:29:52.030Z,6.20
2023-03-20T00:32:21.049Z,6.90
2023-03-20T00:34:51.635Z,6.50
2023-03-20T00:37:20.406Z,5.45
2023-03-20T00:39:49.074Z,6.53
2023-03-20T00:42:22.424Z,6.57
2023-03-20T00:44:59.618Z,6.07
2023-03-20T00:47:30.231Z,6.13
2023-03-20T00:50:01.135Z,7.18
2023-03-20T00:52:30.057Z,5.57
2023-03-20T00:54:58.802Z,5.78
2023-03-20T00:57:31.211Z,5.97
2023-03-20T01:00:05.247Z,6.20
2023-03-20T01:02:34.747Z,6.03
2023-03-20T01:05:05.937Z,5.68
2023-03-20T01:07:34.893Z,5.80
2023-03-20T01:10:05.404Z,5.07
2023-03-20T01:12:34.266Z,5.32
2023-03-20T01:15:03.158Z,5.50
2023-03-20T01:17:32.010Z,5.38
2023-03-20T01:20:00.744Z,5.32
2023-03-20T01:22:31.206Z,5.43
2023-03-20T01:24:59.975Z,5.57
2023-03-20T01:27:28.774Z,5.38
2023-03-20T01:29:57.470Z,5.40
2023-03-20T01:32:26.361Z,5.70
2023-03-20T01:34:55.175Z,6.57
2023-03-20T01:37:27.482Z,6.47
2023-03-20T01:40:00.103Z,5.97
2023-03-20T01:42:30.342Z,6.25
2023-03-20T01:44:59.246Z,5.75
2023-03-20T01:47:31.055Z,7.03
2023-03-20T01:50:32.016Z,6.60
2023-03-20T01:53:16.312Z,6.85
2023-03-20T01:55:55.403Z,6.78
2023-03-20T01:58:30.676Z,7.43
2023-03-20T02:01:00.834Z,6.82
2023-03-20T02:03:29.885Z,6.45
2023-03-20T02:06:16.631Z,7.10
2023-03-20T02:09:05.357Z,6.97
2023-03-20T02:11:43.132Z,7.53
2023-03-20T02:14:13.436Z,6.72
2023-03-20T02:16:51.699Z,7.32
2023-03-20T02:19:32.997Z,6.63
2023-03-20T02:22:38.148Z,6.40
2023-03-20T02:25:42.516Z,6.45
2023-03-20T02:28:47.563Z,6.90
2023-03-20T02:31:47.240Z,7.28
2023-03-20T02:34:50.647Z,6.95
2023-03-20T02:37:46.153Z,8.40
2023-03-20T02:40:22.907Z,7.15
2023-03-20T02:42:59.624Z,9.15
2023-03-20T02:45:31.686Z,8.25
2023-03-20T02:48:17.964Z,7.65
2023-03-20T02:50:52.263Z,8.00
2023-03-20T02:53:32.622Z,8.20
2023-03-20T02:56:08.874Z,8.20
2023-03-20T02:58:42.157Z,8.18
2023-03-20T03:01:15.932Z,8.93
2023-03-20T03:03:49.790Z,8.02
2023-03-20T03:06:23.609Z,8.05
2023-03-20T03:09:00.084Z,7.65
2023-03-20T03:11:28.930Z,8.38
2023-03-20T03:13:59.490Z,7.53
2023-03-20T03:16:31.513Z,7.47
2023-03-20T03:19:06.688Z,8.43
2023-03-20T03:21:38.272Z,7.55
2023-03-20T03:24:26.741Z,7.63
2023-03-20T03:27:05.607Z,8.13
2023-03-20T03:29:37.382Z,8.18
2023-03-20T03:32:08.711Z,8.15
2023-03-20T03:34:38.435Z,7.72
2023-03-20T03:37:15.897Z,8.15
2023-03-20T03:39:52.208Z,8.15
2023-03-20T03:42:27.872Z,7.22
2023-03-20T03:45:00.871Z,7.10
2023-03-20T03:47:34.940Z,7.22
2023-03-20T03:50:08.497Z,7.38
2023-03-20T03:52:38.771Z,7.47
2023-03-20T03:55:13.836Z,7.55
2023-03-20T03:58:02.275Z,6.07
2023-03-20T04:00:33.635Z,7.20
2023-03-20T04:03:03.032Z,7.25
2023-03-20T04:05:35.192Z,6.55
2023-03-20T04:08:07.607Z,6.75
2023-03-20T04:10:37.769Z,5.68
2023-03-20T04:13:10.559Z,6.95
2023-03-20T04:15:39.531Z,6.32
2023-03-20T04:18:15.635Z,6.47
2023-03-20T04:20:45.187Z,6.60
2023-03-20T04:23:14.145Z,6.05
2023-03-20T04:25:44.351Z,7.47
2023-03-20T04:28:16.359Z,7.00
2023-03-20T04:30:55.134Z,5.82
2023-03-20T04:33:36.241Z,7.05
2023-03-20T04:36:22.846Z,6.22
2023-03-20T04:38:56.388Z,6.43
2023-03-20T04:43:59.020Z,6.32
2023-03-20T04:46:28.137Z,6.40
2023-03-20T04:48:57.223Z,6.45
2023-03-20T04:51:29.529Z,5.85
2023-03-20T04:53:59.943Z,7.07
2023-03-20T04:56:30.643Z,5.95
2023-03-20T04:59:12.844Z,5.85
2023-03-20T05:01:41.897Z,5.45
2023-03-20T05:04:11.107Z,5.80
2023-03-20T05:06:39.920Z,5.28
2023-03-20T05:09:08.723Z,5.65
2023-03-20T05:11:40.346Z,5.63
2023-03-20T05:14:18.798Z,6.80
2023-03-20T05:17:13.904Z,5.30
2023-03-20T05:20:00.969Z,4.85
2023-03-20T05:23:03.436Z,5.75
2023-03-20T05:25:53.216Z,4.70
2023-03-20T05:28:37.878Z,4.63
2023-03-20T05:31:18.340Z,4.57
2023-03-20T05:34:05.358Z,4.50
2023-03-20T05:36:52.833Z,5.30
2023-03-20T05:39:39.098Z,5.28
2023-03-20T05:42:22.030Z,4.25
2023-03-20T05:45:12.879Z,5.70
2023-03-20T05:48:05.642Z,4.10
2023-03-20T05:50:43.492Z,4.47
2023-03-20T05:53:15.097Z,5.25
2023-03-20T05:56:07.489Z,4.57
2023-03-20T05:58:42.402Z,4.70
2023-03-20T06:01:31.459Z,4.93
2023-03-20T06:04:10.088Z,4.25
2023-03-20T06:06:59.082Z,4.00
2023-03-20T06:09:27.826Z,4.03
2023-03-20T06:11:59.316Z,4.18
2023-03-20T06:14:28.650Z,4.15
2023-03-20T06:17:03.487Z,4.65
2023-03-20T06:19:32.482Z,4.20
2023-03-20T06:22:01.261Z,4.53
2023-03-20T06:24:30.165Z,4.53
2023-03-20T06:26:59.624Z,3.28
2023-03-20T06:29:29.807Z,4.85
2023-03-20T06:32:12.319Z,3.55
2023-03-20T06:34:41.643Z,3.95
2023-03-20T06:37:10.575Z,4.05
2023-03-20T06:39:41.704Z,4.05
2023-03-20T06:42:16.096Z,3.60
2023-03-20T06:44:45.731Z,4.03
2023-03-20T06:47:27.144Z,4.20
2023-03-20T06:49:56.218Z,4.90
2023-03-20T06:52:25.365Z,4.60
2023-03-20T06:55:14.170Z,4.13
2023-03-20T06:57:43.254Z,3.78
2023-03-20T07:00:13.313Z,3.00
2023-03-20T07:02:43.811Z,3.28
2023-03-20T07:05:16.202Z,3.85
2023-03-20T07:07:45.280Z,3.97
2023-03-20T07:10:14.048Z,3.45
2023-03-20T07:12:49.548Z,3.22
2023-03-20T07:15:18.644Z,3.47
2023-03-20T07:17:49.057Z,3.50
2023-03-20T07:20:18.255Z,3.97
2023-03-20T07:22:49.608Z,3.50
2023-03-20T07:25:41.768Z,3.22
2023-03-20T07:28:12.991Z,2.85
2023-03-20T07:33:19.552Z,4.15
2023-03-20T07:35:48.529Z,3.33
2023-03-20T07:38:17.219Z,3.05
2023-03-20T07:41:05.360Z,2.60
2023-03-20T07:43:36.219Z,2.63
2023-03-20T07:46:25.693Z,3.38
2023-03-20T07:48:58.255Z,3.05
2023-03-20T07:51:27.219Z,2.80
2023-03-20T07:53:55.898Z,3.50
2023-03-20T07:56:24.801Z,3.00
2023-03-20T07:58:53.437Z,3.03
2023-03-20T08:01:22.319Z,2.70
2023-03-20T08:03:51.564Z,3.03
2023-03-20T08:06:21.904Z,2.30
2023-03-20T08:08:52.587Z,3.13
2023-03-20T08:11:21.959Z,2.60
2023-03-20T08:13:50.705Z,2.65
2023-03-20T08:16:19.669Z,3.13
2023-03-20T08:18:50.552Z,2.17
2023-03-20T08:21:19.312Z,2.28
2023-03-20T08:23:49.525Z,2.67
2023-03-20T08:26:18.481Z,2.67
2023-03-20T08:28:48.678Z,2.65
2023-03-20T08:31:18.483Z,2.90
2023-03-20T08:33:48.088Z,2.42
2023-03-20T08:36:19.822Z,2.75
2023-03-20T08:38:51.219Z,3.35
2023-03-20T08:41:20.113Z,2.65
2023-03-20T08:43:49.026Z,3.00
2023-03-20T08:46:17.951Z,3.45
2023-03-20T08:48:46.831Z,3.10
2023-03-20T08:51:16.153Z,3.28
2023-03-20T08:53:44.891Z,2.95
2023-03-20T08:56:15.031Z,3.17
2023-03-20T08:58:44.075Z,3.30
2023-03-20T09:01:12.923Z,3.95
2023-03-20T09:03:41.692Z,3.60
2023-03-20T09:06:11.863Z,3.70
2023-03-20T09:08:40.942Z,3.75
2023-03-20T09:11:09.759Z,3.22
2023-03-20T09:13:39.871Z,3.08
2023-03-20T09:16:09.608Z,2.85
2023-03-20T09:18:38.513Z,3.22
2023-03-20T09:21:07.818Z,3.47
2023-03-20T09:23:36.665Z,4.07
2023-03-20T09:26:05.996Z,3.60
2023-03-20T09:28:34.870Z,3.47
2023-03-20T09:31:05.438Z,3.85
2023-03-20T09:33:34.172Z,3.25
2023-03-20T09:36:03.082Z,3.33
2023-03-20T09:38:31.967Z,3.20
2023-03-20T09:41:02.329Z,3.55
2023-03-20T09:43:45.758Z,3.30
2023-03-20T09:46:31.674Z,3.10
2023-03-20T09:49:08.802Z,3.10
2023-03-20T09:51:41.953Z,3.50
2023-03-20T09:54:18.286Z,3.00
2023-03-20T09:56:47.258Z,3.95
2023-03-20T09:59:19.163Z,3.00
2023-03-20T10:01:53.345Z,3.40
2023-03-20T10:04:22.202Z,3.00
2023-03-20T10:06:50.982Z,3.45
2023-03-20T10:09:24.833Z,3.42
2023-03-20T10:12:18.232Z,3.70
2023-03-20T10:14:56.276Z,2.88
2023-03-20T10:17:45.268Z,3.15
2023-03-20T10:20:15.554Z,3.05
2023-03-20T10:22:49.161Z,3.65
2023-03-20T10:25:27.370Z,2.83
2023-03-20T10:28:00.074Z,2.42
2023-03-20T10:30:45.443Z,2.83
2023-03-20T10:33:27.023Z,2.78
2023-03-20T10:36:10.831Z,5.32
2023-03-20T10:38:46.153Z,2.95
2023-03-20T10:41:18.810Z,3.03
2023-03-20T10:43:50.920Z,3.17
2023-03-20T10:46:24.739Z,2.45
2023-03-20T10:49:01.829Z,3.08
2023-03-20T10:51:41.371Z,2.90
2023-03-20T10:54:22.317Z,2.92
2023-03-20T10:56:55.885Z,3.10
2023-03-20T10:59:27.435Z,2.63
2023-03-20T11:01:56.607Z,3.17
2023-03-20T11:04:27.451Z,2.45
2023-03-20T11:07:04.789Z,2.90
2023-03-20T11:09:33.987Z,2.63
2023-03-20T11:12:04.338Z,2.25
2023-03-20T11:14:37.606Z,2.55
2023-03-20T11:17:38.058Z,2.33
2023-03-20T11:20:09.647Z,2.83
2023-03-20T11:22:39.677Z,2.53
2023-03-20T11:25:09.000Z,2.15
2023-03-20T11:27:37.971Z,2.15
2023-03-20T11:30:17.592Z,2.50
2023-03-20T11:32:49.741Z,2.55
2023-03-20T11:35:27.953Z,2.28
2023-03-20T11:38:09.606Z,2.60
2023-03-20T11:40:39.717Z,3.13
2023-03-20T11:43:13.694Z,2.83
2023-03-20T11:45:44.151Z,2.65
2023-03-20T11:48:20.274Z,2.17
2023-03-20T11:51:03.785Z,2.40
2023-03-20T11:53:36.550Z,2.63
2023-03-20T11:56:11.941Z,2.00
2023-03-20T11:58:52.212Z,2.65
2023-03-20T12:01:22.576Z,2.47
2023-03-20T12:03:55.629Z,2.20
2023-03-20T12:06:28.764Z,2.40
2023-03-20T12:09:01.683Z,2.17
2023-03-20T12:11:43.596Z,2.53
2023-03-20T12:14:23.591Z,2.63
2023-03-20T12:17:06.742Z,2.63
2023-03-20T12:19:36.465Z,2.50
2023-03-20T12:22:19.771Z,2.67
2023-03-20T12:24:54.496Z,2.60
2023-03-20T12:27:29.667Z,3.33
2023-03-20T12:30:04.852Z,2.88
2023-03-20T12:32:39.666Z,3.08
2023-03-20T12:35:16.670Z,2.90
2023-03-20T12:37:47.116Z,3.28
2023-03-20T12:40:18.893Z,3.33
2023-03-20T12:43:03.225Z,2.83
2023-03-20T12:45:38.557Z,2.85
2023-03-20T12:48:21.141Z,3.15
2023-03-20T12:50:55.087Z,2.95
2023-03-20T12:53:41.990Z,3.00
2023-03-20T12:56:25.631Z,2.92
2023-03-20T12:59:00.548Z,3.78
2023-03-20T13:01:33.393Z,3.40
2023-03-20T13:04:28.710Z,3.53
2023-03-20T13:07:02.163Z,2.95
2023-03-20T13:09:48.079Z,3.72
2023-03-20T13:12:30.866Z,3.47
2023-03-20T13:15:15.151Z,3.70
2023-03-20T13:17:50.734Z,3.08
2023-03-20T13:20:28.353Z,3.30
2023-03-20T13:23:11.182Z,3.65
2023-03-20T13:25:54.835Z,3.40
2023-03-20T13:28:31.053Z,3.63
2023-03-20T13:31:07.702Z,3.55
2023-03-20T13:33:47.598Z,3.13
2023-03-20T13:36:26.288Z,4.78
2023-03-20T13:39:00.599Z,3.72
2023-03-20T13:41:32.370Z,3.55
2023-03-20T13:44:03.628Z,3.55
2023-03-20T13:46:36.902Z,4.00
2023-03-20T13:49:09.778Z,3.30
2023-03-20T13:51:43.297Z,4.03
2023-03-20T13:54:23.795Z,3.50
2023-03-20T13:57:01.557Z,3.58
2023-03-20T13:59:46.474Z,3.85
2023-03-20T14:02:41.127Z,3.95
2023-03-20T14:05:15.613Z,4.95
2023-03-20T14:07:46.506Z,3.70
2023-03-20T14:10:42.848Z,4.40
2023-03-20T14:13:18.410Z,3.75
2023-03-20T14:15:53.891Z,3.88
2023-03-20T14:18:24.827Z,4.50
2023-03-20T14:21:16.678Z,4.10
2023-03-20T14:23:50.644Z,3.70
2023-03-20T14:26:24.142Z,4.95
2023-03-20T14:29:00.896Z,4.78
2023-03-20T14:31:34.194Z,4.82
2023-03-20T14:34:16.811Z,4.53
2023-03-20T14:36:52.917Z,4.47
2023-03-20T14:39:44.817Z,4.43
2023-03-20T14:42:40.699Z,3.95
2023-03-20T14:45:37.259Z,4.53
2023-03-20T14:48:17.274Z,4.55
2023-03-20T14:50:56.511Z,4.38
2023-03-20T14:53:27.683Z,4.35
2023-03-20T14:56:11.673Z,4.55
2023-03-20T14:58:57.936Z,4.32
2023-03-20T15:01:44.751Z,4.22
2023-03-20T15:04:32.987Z,4.70
2023-03-20T15:07:05.056Z,4.65
2023-03-20T15:09:40.169Z,4.43
2023-03-20T15:12:10.587Z,4.03
2023-03-20T15:14:46.386Z,4.63
2023-03-20T15:17:23.449Z,4.63
2023-03-20T15:19:52.614Z,5.35
2023-03-20T15:22:22.138Z,5.32
2023-03-20T15:24:55.850Z,4.55
2023-03-20T15:27:29.747Z,4.75
2023-03-20T15:30:01.582Z,5.15
2023-03-20T15:32:34.380Z,5.10
2023-03-20T15:35:06.059Z,6.25
2023-03-20T15:37:36.042Z,6.22
2023-03-20T15:40:13.304Z,6.13
2023-03-20T15:42:42.571Z,5.30
2023-03-20T15:45:24.480Z,5.35
2023-03-20T15:48:01.105Z,4.97
2023-03-20T15:50:34.184Z,6.05
2023-03-20T15:53:04.561Z,4.88
2023-03-20T15:55:33.937Z,5.20
2023-03-20T15:58:04.037Z,5.15
2023-03-20T16:00:35.388Z,5.65
2023-03-20T16:03:09.031Z,4.85
2023-03-20T16:05:38.016Z,5.07
2023-03-20T16:08:23.114Z,4.40
2023-03-20T16:10:57.796Z,7.00
2023-03-20T16:13:27.980Z,4.50
2023-03-20T16:15:57.497Z,6.15
2023-03-20T16:18:37.376Z,5.05
2023-03-20T16:21:10.859Z,4.18
2023-03-20T16:23:42.483Z,5.28
2023-03-20T16:26:17.080Z,4.75
2023-03-20T16:28:48.355Z,4.80
2023-03-20T16:31:21.301Z,4.55
2023-03-20T16:33:51.524Z,4.28
2023-03-20T16:36:24.009Z,5.13
2023-03-20T16:41:30.854Z,4.25
2023-03-20T16:44:00.022Z,4.80
2023-03-20T16:46:29.851Z,4.22
2023-03-20T16:49:41.832Z,5.13
2023-03-20T16:52:15.913Z,4.53
2023-03-20T16:54:46.523Z,8.15
2023-03-20T16:57:18.452Z,4.78
2023-03-20T16:59:49.811Z,7.95
2023-03-20T17:02:25.938Z,4.20
2023-03-20T17:05:02.662Z,4.85
2023-03-20T17:07:32.602Z,4.88
2023-03-20T17:10:13.040Z,4.95
2023-03-20T17:12:43.474Z,4.90
2023-03-20T17:15:16.521Z,5.05
2023-03-20T17:17:45.394Z,4.20
2023-03-20T17:20:21.018Z,5.10
2023-03-20T17:22:50.513Z,4.63
2023-03-20T17:25:20.051Z,4.50
2023-03-20T17:27:49.026Z,4.90
2023-03-20T17:30:19.885Z,4.30
2023-03-20T17:32:49.275Z,4.13
2023-03-20T17:35:19.525Z,4.90
2023-03-20T17:37:49.263Z,4.32
2023-03-20T17:40:20.119Z,4.63
2023-03-20T17:42:49.126Z,5.15
2023-03-20T17:45:20.862Z,5.97
2023-03-20T17:47:51.601Z,4.97
2023-03-20T17:50:25.499Z,4.35
2023-03-20T17:52:55.083Z,4.32
2023-03-20T17:55:24.388Z,4.45
2023-03-20T17:57:53.968Z,3.78
2023-03-20T18:00:24.979Z,5.25
2023-03-20T18:02:54.115Z,4.78
2023-03-20T18:05:24.564Z,5.38
2023-03-20T18:07:53.517Z,4.38
2023-03-20T18:10:29.209Z,4.47
2023-03-20T18:12:58.126Z,5.25
2023-03-20T18:15:28.913Z,6.45
2023-03-20T18:17:57.981Z,4.47
2023-03-20T18:20:30.386Z,5.40
2023-03-20T18:22:59.524Z,5.03
2023-03-20T18:25:28.612Z,6.20
2023-03-20T18:27:59.373Z,5.72
2023-03-20T18:30:32.367Z,4.97
2023-03-20T18:33:01.307Z,5.35
2023-03-20T18:35:31.982Z,5.63
2023-03-20T18:38:01.646Z,5.88
2023-03-20T18:40:32.821Z,5.43
2023-03-20T18:43:02.177Z,4.95
2023-03-20T18:45:33.697Z,5.90
2023-03-20T18:48:03.898Z,6.15
2023-03-20T18:50:37.526Z,4.82
2023-03-20T18:53:08.296Z,5.63
2023-03-20T18:55:38.203Z,6.07
2023-03-20T18:58:07.279Z,4.97
2023-03-20T19:00:39.967Z,4.80
2023-03-20T19:03:11.716Z,4.97
2023-03-20T19:05:42.025Z,5.72
2023-03-20T19:08:16.866Z,5.32
2023-03-20T19:10:47.057Z,4.97
2023-03-20T19:13:18.748Z,5.90
2023-03-20T19:15:47.933Z,7.47
2023-03-20T19:18:21.677Z,6.60
2023-03-20T19:20:53.152Z,4.70
2023-03-20T19:23:22.771Z,6.13
2023-03-20T19:25:54.316Z,6.82
2023-03-20T19:28:37.843Z,5.20
2023-03-20T19:31:08.146Z,4.43
2023-03-20T19:33:37.248Z,4.65
2023-03-20T19:36:08.554Z,6.68
2023-03-20T19:38:38.217Z,6.20
2023-03-20T19:41:08.666Z,6.28
2023-03-20T19:43:51.702Z,5.72
2023-03-20T19:46:39.817Z,8.98
2023-03-20T19:49:18.936Z,7.60
2023-03-20T19:51:51.965Z,5.38
2023-03-20T19:54:20.692Z,5.85
2023-03-20T19:56:49.372Z,5.47
2023-03-20T19:59:18.324Z,6.07
2023-03-20T20:01:47.426Z,7.55
2023-03-20T20:04:16.994Z,5.65
2023-03-20T20:06:47.318Z,5.25
2023-03-20T20:09:18.399Z,4.60
2023-03-20T20:11:47.363Z,5.15
2023-03-20T20:14:16.580Z,4.65
2023-03-20T20:16:45.950Z,4.05
2023-03-20T20:19:14.859Z,5.20
2023-03-20T20:24:34.061Z,4.30
2023-03-20T20:27:16.245Z,4.43
2023-03-20T20:29:49.094Z,5.25
2023-03-20T20:32:19.965Z,5.32
2023-03-20T20:38:28.108Z,4.30
2023-03-20T20:40:32.419Z,5.53
2023-03-20T20:43:02.641Z,4.28
2023-03-20T20:45:32.540Z,3.90
2023-03-20T20:48:02.012Z,4.50
2023-03-20T20:50:33.175Z,4.38
2023-03-20T20:53:02.054Z,4.15
2023-03-20T20:55:32.718Z,3.97
2023-03-20T20:58:03.736Z,4.05
2023-03-20T21:00:47.966Z,4.43
2023-03-20T21:03:20.052Z,4.80
2023-03-20T21:05:48.926Z,4.60
2023-03-20T21:08:18.991Z,4.53
2023-03-20T21:10:50.864Z,4.07
2023-03-20T21:13:19.974Z,4.15
2023-03-20T21:15:48.855Z,3.83
2023-03-20T21:18:17.642Z,4.03
2023-03-20T21:20:46.337Z,4.10
2023-03-20T21:23:15.426Z,3.88
2023-03-20T21:25:47.273Z,3.80
2023-03-20T21:28:18.171Z,4.20
2023-03-20T21:31:16.248Z,3.83
2023-03-20T21:33:38.818Z,3.80
2023-03-20T21:36:08.138Z,4.47
2023-03-20T21:41:25.928Z,4.20
2023-03-20T21:43:56.247Z,4.50
2023-03-20T21:47:04.090Z,4.65
2023-03-20T21:50:19.158Z,3.90
2023-03-20T21:55:37.015Z,4.82
2023-03-20T21:58:29.203Z,4.20
2023-03-20T22:01:21.669Z,4.47
2023-03-20T22:04:02.827Z,4.47
2023-03-20T22:07:17.844Z,5.13
2023-03-20T22:12:50.162Z,4.45
2023-03-20T22:15:33.803Z,4.97
2023-03-20T22:18:12.379Z,4.35
2023-03-20T22:21:13.358Z,5.10
2023-03-20T22:23:53.296Z,4.57
2023-03-20T22:46:05.419Z,4.28
2023-03-20T22:48:41.228Z,3.88
2023-03-20T22:51:12.717Z,3.72
2023-03-20T22:53:42.486Z,5.28
2023-03-20T22:56:12.981Z,4.45
2023-03-20T22:58:42.041Z,4.88
2023-03-20T23:01:11.847Z,4.25
2023-03-20T23:03:42.314Z,3.85
2023-03-20T23:06:20.024Z,3.95
2023-03-20T23:08:55.238Z,3.88
2023-03-20T23:11:27.057Z,3.67
2023-03-20T23:13:57.329Z,4.38
2023-03-20T23:16:26.223Z,3.88
2023-03-20T23:18:55.593Z,4.03
2023-03-20T23:21:26.724Z,3.60
2023-03-20T23:23:55.523Z,4.00
2023-03-20T23:26:24.425Z,3.67
2023-03-20T23:28:53.778Z,4.05
2023-03-20T23:31:25.524Z,3.83
2023-03-20T23:33:55.697Z,3.38
2023-03-20T23:36:42.073Z,3.92
2023-03-20T23:39:14.103Z,3.72
2023-03-20T23:42:05.086Z,3.83
2023-03-20T23:44:31.851Z,3.70
2023-03-20T23:47:03.372Z,3.97
2023-03-20T23:49:36.999Z,4.18
2023-03-20T23:52:08.017Z,3.90
2023-03-20T23:54:36.971Z,3.45
2023-03-20T23:57:05.925Z,3.83
2023-03-20T23:59:34.781Z,4.15
